EDT,Max TemperatureF,Mean TemperatureF,Min TemperatureF,Max Dew PointF,MeanDew PointF,Min DewpointF,Max Humidity, Mean Humidity, Min Humidity, Max Sea Level PressureIn, Mean Sea Level PressureIn, Min Sea Level PressureIn, Max VisibilityMiles, Mean VisibilityMiles, Min VisibilityMiles, Max Wind SpeedMPH, Mean Wind SpeedMPH, Max Gust SpeedMPH,PrecipitationIn, CloudCover, Events, WindDirDegrees
2012-10-1,63,55,46,50,48,45,93,88,83,29.96,29.80,29.71,10,10,10,25,12,36,0.00,4,,246
2012-10-2,64,59,54,58,55,50,100,88,63,30.06,30.04,29.96,10,8,2,13,6,16,0.16,6,Rain,241
2012-10-3,62,60,58,61,59,57,100,96,94,30.17,30.10,30.05,2,0,0,7,5,10,0.04,8,Fog-Rain,63
2012-10-4,62,60,58,61,59,57,100,97,93,30.18,30.13,30.05,9,1,0,12,4,15,0.03,8,Fog-Rain,45
2012-10-5,74,65,56,60,56,52,84,65,46,30.05,30.01,29.94,10,9,1,14,8,18,0.00,1,,265
2012-10-6,73,61,48,58,52,40,93,73,53,29.93,29.84,29.73,10,9,3,26,13,33,T,2,Rain,248
2012-10-7,53,47,41,45,39,34,93,74,54,30.09,30.04,29.95,10,9,4,17,5,23,0.19,5,Rain,262
2012-10-8,54,47,39,44,40,37,93,76,59,30.31,30.22,30.07,10,10,10,12,4,16,0.00,3,,308
2012-10-9,52,49,45,48,45,42,100,92,83,30.31,30.22,30.14,10,9,2,13,7,18,T,7,Rain,48
2012-10-10,59,53,46,57,49,39,100,86,71,30.14,29.93,29.74,10,5,0,31,8,38,0.37,6,Fog-Rain,40
2012-10-11,53,47,40,39,34,32,83,64,45,30.14,30.05,29.85,10,10,10,23,11,33,0.00,0,,258
2012-10-12,50,41,32,39,31,21,89,64,39,30.38,30.13,30.01,10,10,9,21,11,29,0.04,3,Rain,293
2012-10-13,49,39,29,30,23,20,75,53,31,30.48,30.40,30.29,10,10,10,14,8,21,0.00,1,,266
2012-10-14,64,53,42,53,46,32,93,79,65,30.28,30.10,29.95,10,10,2,24,15,32,0.22,5,Rain,221
2012-10-15,70,64,57,60,57,53,93,80,66,29.93,29.71,29.62,10,10,4,23,13,32,0.22,7,Rain,222
2012-10-16,58,47,36,55,37,32,86,68,50,29.90,29.70,29.58,10,10,10,28,14,37,T,3,Rain,294
2012-10-17,60,48,35,35,32,29,89,62,35,30.01,29.96,29.91,10,10,10,12,5,16,0.00,0,,296
2012-10-18,63,54,44,50,43,32,96,71,46,30.12,30.07,30.01,10,10,10,13,7,18,0.00,2,,182
2012-10-19,64,58,51,64,57,48,100,92,84,30.09,29.90,29.74,10,2,0,22,8,29,0.88,8,Fog-Rain,117
2012-10-20,70,59,48,63,56,38,100,70,40,29.76,29.70,29.63,10,5,0,20,8,24,0.03,5,Fog-Thunderstorm,213
2012-10-21,59,51,42,40,38,37,89,67,44,29.92,29.86,29.78,10,10,10,23,11,32,0.00,2,,269
2012-10-22,62,55,48,43,40,38,77,60,42,30.03,29.96,29.90,10,10,10,26,12,35,0.00,1,,277
2012-10-23,61,54,47,45,41,38,71,65,59,30.12,30.08,30.03,10,10,10,14,6,20,T,2,,301
2012-10-24,55,51,46,43,36,28,77,61,44,30.23,30.17,30.13,10,10,10,5,3,5,0.00,8,Rain,50
2012-10-25,58,51,43,41,35,28,77,55,33,30.31,30.27,30.23,10,10,10,8,4,10,0.00,5,,200
2012-10-26,63,56,48,52,49,43,93,80,67,30.27,30.21,30.14,10,10,7,13,7,17,0.00,4,,238
2012-10-27,60,56,51,54,51,43,93,80,66,30.12,30.06,30.01,10,9,4,10,4,14,0.00,6,,21
2012-10-28,51,49,47,49,46,42,100,86,71,30.01,29.91,29.76,10,6,2,21,12,32,0.07,7,Rain,46
2012-10-29,61,55,48,59,53,46,100,95,90,29.74,29.42,29.13,10,3,1,40,20,61,1.53,8,Rain,63
2012-10-30,64,59,53,58,54,50,100,83,65,29.55,29.48,29.27,10,8,0,21,9,26,0.31,8,Fog-Rain,120
2012-10-31,53,49,44,54,46,36,100,83,66,29.56,29.51,29.47,10,6,0,17,8,22,0.07,7,Fog-Rain,182